Time;durP1;ratioP1;P1;durP2;ratioP2;P2;SDS_P1;SDS_P2;PMS_P1;PMS_P2;Temp;Humidity;BMP_temperature;BMP_pressure;BME280_temperature;BME280_humidity;BME280_pressure;Samples;Min_cycle;Max_cycle;Signal;HPM_P1;HPM_P2
2022/05/23 00:00:14;;;;;;;;;;;15.20;95.10;;;;;;5027947;28;38079;-48
2022/05/23 00:02:41;;;;;;;;;;;15.20;95.50;;;;;;5029133;28;37604;-47
2022/05/23 00:05:08;;;;;;;;;;;15.10;95.40;;;;;;5028081;28;39835;-51
2022/05/23 00:07:37;;;;;;;;;;;15.20;95.50;;;;;;5028539;28;36333;-49
2022/05/23 00:10:07;;;;;;;;;;;15.20;95.70;;;;;;5029249;28;36609;-47
2022/05/23 00:12:36;;;;;;;;;;;15.10;95.40;;;;;;5028366;28;37340;-49
2022/05/23 00:15:03;;;;;;;;;;;15.10;95.50;;;;;;5028002;28;37866;-49
2022/05/23 00:17:30;;;;;;;;;;;15.00;95.50;;;;;;5027469;28;38148;-49
2022/05/23 00:19:57;;;;;;;;;;;15.00;95.60;;;;;;5028016;28;33529;-49
2022/05/23 00:22:24;;;;;;;;;;;15.00;95.80;;;;;;5026820;28;39341;-50
2022/05/23 00:24:51;;;;;;;;;;;15.00;96.20;;;;;;5027030;28;38832;-48
2022/05/23 00:27:21;;;;;;;;;;;14.90;96.20;;;;;;5029099;28;38399;-51
2022/05/23 00:29:48;;;;;;;;;;;14.80;96.30;;;;;;5028235;28;36135;-47
2022/05/23 00:37:40;;;;;;;;;;;14.70;96.60;;;;;;5030695;28;40202;-51
2022/05/23 00:40:08;;;;;;;;;;;14.70;96.90;;;;;;5032377;28;37006;-50
2022/05/23 00:45:21;;;;;;;;;;;14.70;97.00;;;;;;5032782;28;40246;-47
2022/05/23 00:47:51;;;;;;;;;;;14.60;97.20;;;;;;5032529;28;39021;-52
2022/05/23 00:50:18;;;;;;;;;;;14.60;97.20;;;;;;5032238;28;38648;-51
2022/05/23 00:52:47;;;;;;;;;;;14.50;97.40;;;;;;5030973;28;38443;-49
2022/05/23 00:55:16;;;;;;;;;;;14.60;97.50;;;;;;5031896;28;39219;-51
2022/05/23 00:57:46;;;;;;;;;;;14.50;97.40;;;;;;5031958;28;38852;-49
2022/05/23 01:00:13;;;;;;;;;;;14.40;97.40;;;;;;5030931;28;36120;-51
2022/05/23 01:02:42;;;;;;;;;;;14.40;97.30;;;;;;5031041;28;37429;-51
2022/05/23 01:05:10;;;;;;;;;;;14.30;97.50;;;;;;5031830;28;38267;-46
2022/05/23 01:07:37;;;;;;;;;;;14.30;97.60;;;;;;5031414;28;38341;-51
2022/05/23 01:10:05;;;;;;;;;;;14.20;97.60;;;;;;5031752;28;36504;-50
2022/05/23 01:12:32;;;;;;;;;;;14.20;97.80;;;;;;5031497;28;39300;-47
2022/05/23 01:15:03;;;;;;;;;;;14.20;97.90;;;;;;5032388;28;38469;-51
2022/05/23 01:17:30;;;;;;;;;;;14.10;98.00;;;;;;5031892;28;38006;-48
2022/05/23 01:19:57;;;;;;;;;;;14.10;98.20;;;;;;5032067;28;35122;-51
2022/05/23 01:22:29;;;;;;;;;;;14.10;98.20;;;;;;5030846;28;39440;-49
2022/05/23 01:24:59;;;;;;;;;;;14.10;98.30;;;;;;5031621;28;38509;-51
2022/05/23 01:27:29;;;;;;;;;;;14.10;98.40;;;;;;5031715;28;38459;-49
2022/05/23 01:29:56;;;;;;;;;;;14.10;98.40;;;;;;5031642;28;37884;-51
2022/05/23 01:32:23;;;;;;;;;;;14.00;98.30;;;;;;5031572;28;36598;-51
2022/05/23 01:34:50;;;;;;;;;;;14.00;98.20;;;;;;5029830;28;38325;-51
2022/05/23 01:37:17;;;;;;;;;;;14.00;98.10;;;;;;5030047;28;37775;-50
2022/05/23 01:39:44;;;;;;;;;;;14.00;98.10;;;;;;5031446;28;36441;-49
2022/05/23 01:42:11;;;;;;;;;;;13.90;98.20;;;;;;5031150;28;39094;-51
2022/05/23 01:44:40;;;;;;;;;;;13.90;98.40;;;;;;5031832;28;38457;-51
2022/05/23 01:47:08;;;;;;;;;;;13.90;98.40;;;;;;5030914;28;36845;-50
2022/05/23 01:49:35;;;;;;;;;;;13.90;98.40;;;;;;5031617;28;37305;-49
2022/05/23 01:52:02;;;;;;;;;;;13.90;98.60;;;;;;5029663;28;37982;-51
2022/05/23 01:54:29;;;;;;;;;;;14.00;98.80;;;;;;5031040;28;38460;-49
2022/05/23 01:56:56;;;;;;;;;;;14.00;98.80;;;;;;5030540;28;37776;-51
2022/05/23 02:02:09;;;;;;;;;;;14.10;98.80;;;;;;5031547;28;37539;-50
2022/05/23 02:04:37;;;;;;;;;;;14.10;98.70;;;;;;5031495;28;36948;-48
2022/05/23 02:07:05;;;;;;;;;;;14.10;98.40;;;;;;5031187;28;37553;-51
2022/05/23 02:09:32;;;;;;;;;;;14.10;98.40;;;;;;5031940;28;36607;-49
2022/05/23 02:11:59;;;;;;;;;;;14.10;98.50;;;;;;5031801;28;36527;-52
2022/05/23 02:14:26;;;;;;;;;;;14.10;98.30;;;;;;5029804;28;38812;-51
2022/05/23 02:16:53;;;;;;;;;;;14.20;98.20;;;;;;5031855;28;37788;-51
2022/05/23 02:19:22;;;;;;;;;;;14.20;98.10;;;;;;5031185;28;36198;-46
2022/05/23 02:21:49;;;;;;;;;;;14.20;97.70;;;;;;5031651;28;37538;-50
2022/05/23 02:24:16;;;;;;;;;;;14.30;97.90;;;;;;5031174;28;39316;-49
2022/05/23 02:26:43;;;;;;;;;;;14.30;97.60;;;;;;5030945;28;38763;-46
2022/05/23 02:29:11;;;;;;;;;;;14.30;97.50;;;;;;5031119;28;35268;-51
2022/05/23 02:31:38;;;;;;;;;;;14.30;97.20;;;;;;5030762;28;39726;-58
2022/05/23 02:34:05;;;;;;;;;;;14.30;97.30;;;;;;5029132;28;36993;-58
2022/05/23 02:36:34;;;;;;;;;;;14.30;97.50;;;;;;5030191;28;37451;-58
2022/05/23 02:39:01;;;;;;;;;;;14.40;97.50;;;;;;5031015;28;38464;-58
2022/05/23 02:41:28;;;;;;;;;;;14.30;97.50;;;;;;5030957;28;36503;-58
2022/05/23 02:43:55;;;;;;;;;;;14.40;97.70;;;;;;5030725;28;38220;-58
2022/05/23 02:46:23;;;;;;;;;;;14.40;97.40;;;;;;5030478;28;39058;-58
2022/05/23 02:48:50;;;;;;;;;;;14.40;97.50;;;;;;5033722;28;37417;-58
2022/05/23 02:51:17;;;;;;;;;;;14.40;97.60;;;;;;5033590;28;38832;-58
2022/05/23 02:53:45;;;;;;;;;;;14.40;97.50;;;;;;5033982;28;37866;-58
2022/05/23 02:56:12;;;;;;;;;;;14.40;97.70;;;;;;5034806;28;37005;-58
2022/05/23 02:58:39;;;;;;;;;;;14.40;97.60;;;;;;5034745;28;36580;-58
2022/05/23 03:01:06;;;;;;;;;;;14.40;97.80;;;;;;5034486;28;37806;-59
2022/05/23 03:03:33;;;;;;;;;;;14.40;97.60;;;;;;5034671;28;39147;-58
2022/05/23 03:06:01;;;;;;;;;;;14.40;97.60;;;;;;5034891;28;36457;-58
2022/05/23 03:08:29;;;;;;;;;;;14.40;97.20;;;;;;5034615;28;37208;-58
2022/05/23 03:10:58;;;;;;;;;;;14.40;97.30;;;;;;5034968;28;37836;-57
2022/05/23 03:13:25;;;;;;;;;;;14.40;97.20;;;;;;5034555;28;38574;-58
2022/05/23 03:15:52;;;;;;;;;;;14.30;97.40;;;;;;5034341;28;38996;-58
2022/05/23 03:18:19;;;;;;;;;;;14.40;97.50;;;;;;5033987;28;36135;-58
2022/05/23 03:20:47;;;;;;;;;;;14.40;97.60;;;;;;5033419;28;37974;-58
2022/05/23 03:28:44;;;;;;;;;;;14.20;97.80;;;;;;5034070;28;36535;-58
2022/05/23 03:31:12;;;;;;;;;;;14.20;98.00;;;;;;5035054;28;37837;-58
2022/05/23 03:33:39;;;;;;;;;;;14.10;97.80;;;;;;5034425;28;38872;-58
2022/05/23 03:36:08;;;;;;;;;;;14.10;98.00;;;;;;5033734;28;37825;-59
2022/05/23 03:38:36;;;;;;;;;;;14.10;98.10;;;;;;5033396;28;35190;-58
2022/05/23 03:41:07;;;;;;;;;;;14.00;98.40;;;;;;5033903;28;37329;-58
2022/05/23 03:43:34;;;;;;;;;;;14.10;98.50;;;;;;5034024;28;39377;-59
2022/05/23 03:46:04;;;;;;;;;;;14.00;98.40;;;;;;5032282;28;36289;-59
2022/05/23 03:48:31;;;;;;;;;;;14.00;98.40;;;;;;5032383;28;37846;-58
2022/05/23 03:50:58;;;;;;;;;;;14.00;98.40;;;;;;5032146;28;37632;-58
2022/05/23 03:53:25;;;;;;;;;;;14.10;98.40;;;;;;5032979;28;38791;-58
2022/05/23 03:55:53;;;;;;;;;;;14.10;98.70;;;;;;5033374;28;38752;-58
2022/05/23 03:58:21;;;;;;;;;;;14.00;98.80;;;;;;5031573;28;36381;-58
2022/05/23 04:00:49;;;;;;;;;;;14.10;98.80;;;;;;5033355;28;36678;-59
2022/05/23 04:03:16;;;;;;;;;;;14.10;98.90;;;;;;5032696;28;40407;-58
2022/05/23 04:05:43;;;;;;;;;;;14.10;98.80;;;;;;5032965;28;37513;-58
2022/05/23 04:08:11;;;;;;;;;;;14.00;98.80;;;;;;5033083;28;36517;-59
2022/05/23 04:10:39;;;;;;;;;;;14.10;99.10;;;;;;5033382;28;37604;-58
2022/05/23 04:13:06;;;;;;;;;;;14.10;99.10;;;;;;5032677;28;39512;-58
2022/05/23 04:15:35;;;;;;;;;;;14.10;99.30;;;;;;5032624;28;37127;-59
2022/05/23 04:18:02;;;;;;;;;;;14.10;99.30;;;;;;5032704;28;35315;-58
2022/05/23 04:20:29;;;;;;;;;;;14.20;99.60;;;;;;5032743;28;37946;-58
2022/05/23 04:22:56;;;;;;;;;;;14.20;99.60;;;;;;5031319;28;38538;-59
2022/05/23 04:25:23;;;;;;;;;;;14.20;99.60;;;;;;5033184;28;37796;-58
2022/05/23 04:27:51;;;;;;;;;;;14.20;99.50;;;;;;5033460;28;38037;-58
2022/05/23 04:30:18;;;;;;;;;;;14.20;99.40;;;;;;5033236;28;37296;-58
2022/05/23 04:35:31;;;;;;;;;;;14.20;99.00;;;;;;5031149;28;38367;-58
2022/05/23 04:37:58;;;;;;;;;;;14.20;98.80;;;;;;5032654;28;35910;-58
2022/05/23 04:40:26;;;;;;;;;;;14.10;98.80;;;;;;5032421;28;37910;-59
2022/05/23 04:42:53;;;;;;;;;;;14.20;98.70;;;;;;5031554;28;40434;-59
2022/05/23 04:45:22;;;;;;;;;;;14.20;98.70;;;;;;5032411;28;37353;-58
2022/05/23 04:50:35;;;;;;;;;;;14.30;98.70;;;;;;5032530;28;39291;-58
2022/05/23 04:53:02;;;;;;;;;;;14.40;98.90;;;;;;5032706;28;39071;-58
2022/05/23 04:55:29;;;;;;;;;;;14.60;98.60;;;;;;5032195;28;37340;-58
2022/05/23 04:57:58;;;;;;;;;;;14.80;98.90;;;;;;5032526;28;35008;-58
2022/05/23 05:00:29;;;;;;;;;;;14.90;98.80;;;;;;5032498;28;39342;-58
2022/05/23 05:02:59;;;;;;;;;;;15.10;98.40;;;;;;5031184;28;38106;-59
2022/05/23 05:05:26;;;;;;;;;;;15.30;98.00;;;;;;5032141;28;39404;-58
2022/05/23 05:07:53;;;;;;;;;;;15.50;97.50;;;;;;5031333;28;36185;-58
2022/05/23 05:10:21;;;;;;;;;;;15.60;97.70;;;;;;5030104;28;38399;-58
2022/05/23 05:12:49;;;;;;;;;;;15.80;97.10;;;;;;5031030;28;38156;-58
2022/05/23 05:15:16;;;;;;;;;;;15.80;96.40;;;;;;5031151;28;36252;-59
2022/05/23 05:17:43;;;;;;;;;;;15.90;96.40;;;;;;5031765;28;38338;-58
2022/05/23 05:20:12;;;;;;;;;;;16.00;96.50;;;;;;5031604;28;37517;-59
2022/05/23 05:22:40;;;;;;;;;;;16.00;96.00;;;;;;5030501;28;39643;-59
2022/05/23 05:25:08;;;;;;;;;;;15.90;96.20;;;;;;5030564;28;37238;-58
2022/05/23 05:27:36;;;;;;;;;;;15.90;95.90;;;;;;5030849;28;35148;-58
2022/05/23 05:30:04;;;;;;;;;;;15.80;96.20;;;;;;5031053;28;38161;-59
2022/05/23 05:32:36;;;;;;;;;;;15.80;96.10;;;;;;5030279;28;38762;-58
2022/05/23 05:35:06;;;;;;;;;;;15.80;96.70;;;;;;5029307;28;38136;-59
2022/05/23 05:37:35;;;;;;;;;;;15.80;96.70;;;;;;5030663;28;36385;-58
2022/05/23 05:40:05;;;;;;;;;;;15.80;96.20;;;;;;5030661;28;37785;-58
2022/05/23 05:42:33;;;;;;;;;;;15.80;96.20;;;;;;5030227;28;38136;-58
2022/05/23 05:45:02;;;;;;;;;;;15.80;95.90;;;;;;5029460;28;36265;-58
2022/05/23 05:47:31;;;;;;;;;;;15.80;96.10;;;;;;5028108;28;36222;-59
2022/05/23 05:50:01;;;;;;;;;;;15.80;96.30;;;;;;5028329;28;37812;-58
2022/05/23 05:52:30;;;;;;;;;;;15.80;96.30;;;;;;5026909;28;38940;-58
2022/05/23 05:54:59;;;;;;;;;;;15.90;95.90;;;;;;5027806;28;37889;-58
2022/05/23 05:57:26;;;;;;;;;;;15.90;96.80;;;;;;5027253;28;36956;-58
2022/05/23 05:59:54;;;;;;;;;;;16.00;96.60;;;;;;5027986;28;40339;-59
2022/05/23 06:02:21;;;;;;;;;;;16.10;96.40;;;;;;5026830;28;39537;-59
2022/05/23 06:04:48;;;;;;;;;;;16.20;95.90;;;;;;5027738;28;37595;-59
2022/05/23 06:12:50;;;;;;;;;;;16.30;96.30;;;;;;5028682;28;38305;-59
2022/05/23 06:15:17;;;;;;;;;;;16.40;96.50;;;;;;5027488;28;38229;-59
2022/05/23 06:17:44;;;;;;;;;;;16.50;96.80;;;;;;5028011;28;37015;-59
2022/05/23 06:20:12;;;;;;;;;;;16.60;96.20;;;;;;5028403;28;37569;-58
2022/05/23 06:22:39;;;;;;;;;;;16.70;95.60;;;;;;5029802;28;39083;-59
2022/05/23 06:25:08;;;;;;;;;;;16.80;96.20;;;;;;5032341;28;37495;-59
2022/05/23 06:27:35;;;;;;;;;;;16.80;96.20;;;;;;5031902;28;36589;-58
2022/05/23 06:30:05;;;;;;;;;;;16.90;96.30;;;;;;5031816;28;38263;-59
2022/05/23 06:32:32;;;;;;;;;;;17.00;95.80;;;;;;5032086;28;40012;-59
2022/05/23 06:34:59;;;;;;;;;;;17.00;95.50;;;;;;5031415;28;37362;-58
2022/05/23 06:37:26;;;;;;;;;;;17.00;94.80;;;;;;5031900;28;37917;-59
2022/05/23 06:39:53;;;;;;;;;;;17.00;95.20;;;;;;5031638;28;38706;-59
2022/05/23 06:42:22;;;;;;;;;;;17.00;95.50;;;;;;5030958;28;38913;-59
2022/05/23 06:44:49;;;;;;;;;;;17.00;95.20;;;;;;5031612;28;38126;-59
2022/05/23 06:47:16;;;;;;;;;;;17.00;95.20;;;;;;5032048;28;35901;-59
2022/05/23 06:49:43;;;;;;;;;;;17.00;96.10;;;;;;5032106;28;37836;-58
2022/05/23 06:52:10;;;;;;;;;;;17.00;95.50;;;;;;5031359;28;37314;-59
2022/05/23 06:54:37;;;;;;;;;;;17.10;95.30;;;;;;5031654;28;37671;-59
2022/05/23 06:57:04;;;;;;;;;;;17.10;95.20;;;;;;5033763;28;35122;-59
2022/05/23 06:59:33;;;;;;;;;;;17.10;94.70;;;;;;5032744;28;38979;-58
2022/05/23 07:02:01;;;;;;;;;;;17.20;95.30;;;;;;5033022;28;39056;-59
2022/05/23 07:12:19;;;;;;;;;;;17.10;95.10;;;;;;5033626;28;37508;-59
2022/05/23 07:12:45;;;;;;;;;;;17.30;95.20;;;;;;5031925;28;40471;-52
2022/05/23 07:15:13;;;;;;;;;;;17.30;95.20;;;;;;5029761;28;37513;-46
2022/05/23 07:17:40;;;;;;;;;;;17.30;95.40;;;;;;5026223;28;35943;-51
2022/05/23 07:20:08;;;;;;;;;;;17.40;95.40;;;;;;5025454;28;38005;-51
2022/05/23 07:22:36;;;;;;;;;;;17.40;95.40;;;;;;5025679;28;37101;-48
2022/05/23 07:25:06;;;;;;;;;;;17.50;95.50;;;;;;5024293;28;39645;-48
2022/05/23 07:27:37;;;;;;;;;;;17.60;95.50;;;;;;5025506;28;37442;-47
2022/05/23 07:30:04;;;;;;;;;;;17.70;95.20;;;;;;5023797;28;37831;-49
2022/05/23 07:32:33;;;;;;;;;;;17.70;95.20;;;;;;5028920;28;38008;-49
2022/05/23 07:35:00;;;;;;;;;;;17.80;95.00;;;;;;5030309;28;37317;-48
2022/05/23 07:37:27;;;;;;;;;;;18.00;95.50;;;;;;5029735;28;37153;-47
2022/05/23 07:39:56;;;;;;;;;;;18.00;94.40;;;;;;5030770;28;37281;-47
2022/05/23 07:42:23;;;;;;;;;;;18.00;94.80;;;;;;5029515;28;38046;-47
2022/05/23 07:44:50;;;;;;;;;;;18.00;94.70;;;;;;5030179;28;38218;-46
2022/05/23 07:47:17;;;;;;;;;;;18.10;95.00;;;;;;5030667;28;35170;-47
2022/05/23 07:49:47;;;;;;;;;;;18.10;94.80;;;;;;5030599;28;37947;-46
2022/05/23 07:52:14;;;;;;;;;;;18.10;95.30;;;;;;5030567;28;36960;-49
2022/05/23 08:02:56;;;;;;;;;;;18.70;96.20;;;;;;5031519;28;39667;-48
2022/05/23 08:05:24;;;;;;;;;;;18.80;95.50;;;;;;5030537;28;37699;-50
2022/05/23 08:07:51;;;;;;;;;;;18.90;94.80;;;;;;5030915;28;36608;-50
2022/05/23 08:10:20;;;;;;;;;;;18.90;94.80;;;;;;5032173;28;37372;-47
2022/05/23 08:12:52;;;;;;;;;;;18.90;94.60;;;;;;5030784;28;37950;-47
2022/05/23 08:15:19;;;;;;;;;;;18.80;94.60;;;;;;5030584;28;36519;-48
2022/05/23 08:17:47;;;;;;;;;;;18.80;94.40;;;;;;5031460;28;36696;-47
2022/05/23 08:20:14;;;;;;;;;;;18.90;95.90;;;;;;5030605;28;37131;-59
2022/05/23 08:22:44;;;;;;;;;;;18.90;94.90;;;;;;5030759;28;37795;-59
2022/05/23 08:25:11;;;;;;;;;;;19.00;94.70;;;;;;5031997;28;39939;-59
2022/05/23 08:27:39;;;;;;;;;;;19.00;95.30;;;;;;5031106;28;36054;-59
2022/05/23 08:30:07;;;;;;;;;;;19.20;95.90;;;;;;5031235;28;39977;-59
2022/05/23 08:32:34;;;;;;;;;;;19.40;94.60;;;;;;5031600;28;38169;-59
2022/05/23 08:35:01;;;;;;;;;;;19.50;94.10;;;;;;5030701;28;38325;-59
2022/05/23 08:37:28;;;;;;;;;;;19.60;94.10;;;;;;5030998;28;36284;-59
2022/05/23 08:39:56;;;;;;;;;;;19.80;95.20;;;;;;5030892;28;36428;-47
2022/05/23 08:42:29;;;;;;;;;;;19.90;94.40;;;;;;5031319;28;37157;-46
2022/05/23 08:45:02;;;;;;;;;;;20.10;94.10;;;;;;5030311;28;38433;-47
2022/05/23 08:47:33;;;;;;;;;;;20.20;94.10;;;;;;5030084;28;35127;-51
2022/05/23 08:50:05;;;;;;;;;;;20.40;93.60;;;;;;5031386;28;40748;-49
2022/05/23 08:52:33;;;;;;;;;;;20.50;93.10;;;;;;5029909;28;37137;-47
2022/05/23 08:55:03;;;;;;;;;;;20.50;92.90;;;;;;5031223;28;38520;-48
2022/05/23 08:57:34;;;;;;;;;;;20.50;93.50;;;;;;5027817;28;36314;-48
2022/05/23 09:00:04;;;;;;;;;;;20.60;93.00;;;;;;5029989;28;37841;-51
2022/05/23 09:02:37;;;;;;;;;;;20.60;93.40;;;;;;5029068;28;38366;-48
2022/05/23 09:05:06;;;;;;;;;;;20.60;93.00;;;;;;5027668;28;37712;-49
2022/05/23 09:07:35;;;;;;;;;;;20.60;93.50;;;;;;5027105;28;36752;-46
2022/05/23 09:10:06;;;;;;;;;;;20.60;94.00;;;;;;5027605;28;37665;-46
2022/05/23 09:12:33;;;;;;;;;;;20.70;94.30;;;;;;5029172;28;39373;-48
2022/05/23 09:15:00;;;;;;;;;;;20.90;93.20;;;;;;5029848;28;38596;-46
2022/05/23 09:17:29;;;;;;;;;;;21.10;92.70;;;;;;5028523;28;37808;-47
2022/05/23 09:20:00;;;;;;;;;;;21.30;93.20;;;;;;5027705;28;38499;-48
2022/05/23 09:22:34;;;;;;;;;;;21.50;92.20;;;;;;5028809;28;38524;-47
2022/05/23 09:25:03;;;;;;;;;;;21.60;90.80;;;;;;5028749;28;36368;-46
2022/05/23 09:27:36;;;;;;;;;;;21.90;91.70;;;;;;5028254;28;37485;-48
2022/05/23 09:30:04;;;;;;;;;;;22.00;91.10;;;;;;5029132;28;38327;-47
2022/05/23 09:32:35;;;;;;;;;;;22.10;90.90;;;;;;5028442;28;38717;-49
2022/05/23 09:35:04;;;;;;;;;;;22.20;90.60;;;;;;5028837;28;37348;-51
2022/05/23 09:37:36;;;;;;;;;;;22.30;90.00;;;;;;5029213;28;37153;-47
2022/05/23 09:40:04;;;;;;;;;;;22.40;90.70;;;;;;5026767;28;36480;-50
2022/05/23 09:48:14;;;;;;;;;;;22.90;87.80;;;;;;5028542;28;38285;-48
2022/05/23 09:50:42;;;;;;;;;;;22.70;87.70;;;;;;5028102;28;37732;-49
2022/05/23 09:53:24;;;;;;;;;;;22.50;87.10;;;;;;5026809;28;39527;-49
2022/05/23 09:55:51;;;;;;;;;;;22.50;88.20;;;;;;5026416;28;37368;-47
2022/05/23 09:58:22;;;;;;;;;;;22.40;88.00;;;;;;5028792;28;36140;-59
2022/05/23 10:00:58;;;;;;;;;;;22.30;90.40;;;;;;5028583;28;38213;-59
2022/05/23 10:03:27;;;;;;;;;;;22.30;89.20;;;;;;5028199;28;38924;-59
2022/05/23 10:06:02;;;;;;;;;;;22.20;90.10;;;;;;5028422;28;37860;-59
2022/05/23 10:08:31;;;;;;;;;;;22.10;88.70;;;;;;5027850;28;35938;-59
2022/05/23 10:11:00;;;;;;;;;;;22.10;88.90;;;;;;5029385;28;36340;-59
2022/05/23 10:13:28;;;;;;;;;;;22.00;90.00;;;;;;5028545;28;37081;-59
2022/05/23 10:15:57;;;;;;;;;;;22.00;90.10;;;;;;5029270;28;36299;-59
2022/05/23 10:18:26;;;;;;;;;;;22.00;90.30;;;;;;5027313;28;36218;-59
2022/05/23 10:20:54;;;;;;;;;;;22.00;90.20;;;;;;5027915;28;38507;-48
2022/05/23 10:23:22;;;;;;;;;;;22.10;90.30;;;;;;5026902;28;39733;-48
2022/05/23 10:25:56;;;;;;;;;;;22.10;90.30;;;;;;5028049;28;36278;-49
2022/05/23 10:28:27;;;;;;;;;;;22.20;89.50;;;;;;5027853;28;35961;-46
2022/05/23 10:30:57;;;;;;;;;;;22.30;88.00;;;;;;5026517;28;38739;-59
2022/05/23 10:33:27;;;;;;;;;;;22.30;87.70;;;;;;5026386;28;37333;-59
2022/05/23 10:35:59;;;;;;;;;;;22.30;88.30;;;;;;5027801;28;39022;-48
2022/05/23 10:44:04;;;;;;;;;;;22.90;87.50;;;;;;5027985;28;39732;-47
2022/05/23 10:46:35;;;;;;;;;;;23.20;85.20;;;;;;5027113;28;36066;-47
2022/05/23 10:49:16;;;;;;;;;;;23.40;82.70;;;;;;5023543;28;36433;-59
2022/05/23 10:51:46;;;;;;;;;;;23.50;85.10;;;;;;5024341;28;37645;-47
2022/05/23 10:54:20;;;;;;;;;;;23.70;82.30;;;;;;5027858;28;38470;-48
2022/05/23 10:56:58;;;;;;;;;;;23.70;80.80;;;;;;5027907;28;37779;-49
2022/05/23 10:59:32;;;;;;;;;;;23.80;79.70;;;;;;5025207;28;37791;-48
2022/05/23 11:02:05;;;;;;;;;;;24.00;75.70;;;;;;5027528;28;39372;-49
2022/05/23 11:04:41;;;;;;;;;;;24.20;78.00;;;;;;5026435;28;39469;-58
2022/05/23 11:07:23;;;;;;;;;;;24.30;77.50;;;;;;5028587;28;38430;-59
2022/05/23 11:09:53;;;;;;;;;;;24.40;77.70;;;;;;5031943;28;37868;-58
2022/05/23 11:12:27;;;;;;;;;;;24.40;75.40;;;;;;5031062;28;36662;-59
2022/05/23 11:15:03;;;;;;;;;;;24.40;75.10;;;;;;5030510;28;40387;-59
2022/05/23 11:17:33;;;;;;;;;;;24.40;71.90;;;;;;5030876;28;37979;-59
2022/05/23 11:20:07;;;;;;;;;;;24.40;71.90;;;;;;5031231;28;36717;-59
2022/05/23 11:22:35;;;;;;;;;;;24.40;75.90;;;;;;5030638;28;39997;-58
2022/05/23 11:25:07;;;;;;;;;;;24.50;70.60;;;;;;5030993;28;38407;-59
2022/05/23 11:35:54;;;;;;;;;;;24.50;59.40;;;;;;5030879;28;38233;-59
2022/05/23 11:38:22;;;;;;;;;;;24.40;68.20;;;;;;5031711;28;36477;-59
2022/05/23 11:41:04;;;;;;;;;;;24.40;67.50;;;;;;5030938;28;37567;-51
2022/05/23 11:43:31;;;;;;;;;;;24.50;66.40;;;;;;5029774;28;37986;-48
2022/05/23 11:45:59;;;;;;;;;;;24.40;62.70;;;;;;5031208;28;37097;-58
2022/05/23 11:48:45;;;;;;;;;;;24.30;64.10;;;;;;5030565;28;37588;-58
2022/05/23 11:51:16;;;;;;;;;;;24.30;67.50;;;;;;5030695;28;36949;-59
2022/05/23 11:53:45;;;;;;;;;;;24.20;68.70;;;;;;5031157;28;38437;-59
2022/05/23 11:56:12;;;;;;;;;;;24.20;67.10;;;;;;5030873;28;38579;-59
2022/05/23 11:58:41;;;;;;;;;;;24.00;64.70;;;;;;5028332;28;36120;-58
2022/05/23 12:01:17;;;;;;;;;;;23.90;68.60;;;;;;5029084;28;37419;-49
2022/05/23 12:04:14;;;;;;;;;;;23.80;68.30;;;;;;5028423;28;36543;-50
2022/05/23 12:06:43;;;;;;;;;;;23.80;66.40;;;;;;4948178;28;37106;-50
2022/05/23 12:09:28;;;;;;;;;;;23.70;70.70;;;;;;5008963;28;38269;-50
2022/05/23 12:12:10;;;;;;;;;;;23.70;74.00;;;;;;5029533;28;36817;-48
2022/05/23 12:14:51;;;;;;;;;;;23.80;73.00;;;;;;5029869;28;37463;-48
2022/05/23 12:17:22;;;;;;;;;;;23.80;72.70;;;;;;5030778;28;38413;-49
2022/05/23 12:19:53;;;;;;;;;;;23.70;72.50;;;;;;5072108;28;39284;-47
2022/05/23 12:22:26;;;;;;;;;;;23.70;75.10;;;;;;5072502;28;36897;-51
2022/05/23 12:25:23;;;;;;;;;;;23.60;76.00;;;;;;5075114;28;38411;-48
2022/05/23 13:11:34;;;;;;;;;;;22.70;75.50;;;;;;5915848;22;21139;31
2022/05/23 13:14:01;;;;;;;;;;;22.70;75.90;;;;;;5027101;28;37219;-48
2022/05/23 13:16:30;;;;;;;;;;;22.70;74.60;;;;;;4999535;22;36229;-58
2022/05/23 13:27:10;;;;;;;;;;;22.60;75.90;;;;;;4998656;28;37402;-47
2022/05/23 13:29:37;;;;;;;;;;;22.50;78.30;;;;;;4999178;28;36351;-47
2022/05/23 13:32:08;;;;;;;;;;;22.50;78.60;;;;;;4997058;28;38300;-47
2022/05/23 13:34:36;;;;;;;;;;;22.50;78.70;;;;;;4997805;28;36646;-48
2022/05/23 13:37:03;;;;;;;;;;;22.50;79.80;;;;;;4999199;28;37198;-49
2022/05/23 13:39:30;;;;;;;;;;;22.50;81.20;;;;;;4998234;28;38356;-51
2022/05/23 13:41:57;;;;;;;;;;;22.40;81.20;;;;;;4998186;28;38930;-47
2022/05/23 13:44:26;;;;;;;;;;;22.40;78.10;;;;;;4996394;28;39104;-50
2022/05/23 13:46:56;;;;;;;;;;;22.40;79.20;;;;;;4997355;28;35139;-47
2022/05/23 13:49:24;;;;;;;;;;;22.40;79.60;;;;;;4999125;28;38600;-47
2022/05/23 13:51:52;;;;;;;;;;;22.40;78.50;;;;;;4998197;28;39470;-49
2022/05/23 13:54:22;;;;;;;;;;;22.40;77.40;;;;;;4998182;28;38165;-48
2022/05/23 13:56:51;;;;;;;;;;;22.40;78.10;;;;;;4998044;28;36979;-47
2022/05/23 13:59:20;;;;;;;;;;;22.40;78.30;;;;;;4997019;28;39190;-48
2022/05/23 14:01:51;;;;;;;;;;;22.40;77.70;;;;;;4996517;28;41526;-49
2022/05/23 14:04:20;;;;;;;;;;;22.40;79.90;;;;;;4996475;28;38845;-49
2022/05/23 14:06:50;;;;;;;;;;;22.40;82.90;;;;;;4996449;28;36679;-51
2022/05/23 14:09:18;;;;;;;;;;;22.40;81.70;;;;;;4997579;28;37912;-47
2022/05/23 14:11:49;;;;;;;;;;;22.50;81.30;;;;;;4997268;28;38574;-59
2022/05/23 14:14:18;;;;;;;;;;;22.50;82.70;;;;;;4995877;28;36624;-60
2022/05/23 14:16:53;;;;;;;;;;;22.50;80.60;;;;;;4991352;28;35896;-60
2022/05/23 14:19:22;;;;;;;;;;;22.60;82.50;;;;;;4996392;28;39699;-60
2022/05/23 14:21:49;;;;;;;;;;;22.60;81.90;;;;;;4996597;28;40049;-60
2022/05/23 14:24:17;;;;;;;;;;;22.50;85.40;;;;;;5007166;28;36291;-61
2022/05/23 14:27:00;;;;;;;;;;;22.60;86.20;;;;;;5007355;28;36808;-61
2022/05/23 14:29:27;;;;;;;;;;;22.60;86.50;;;;;;5005794;28;38525;-58
2022/05/23 14:32:00;;;;;;;;;;;22.60;87.60;;;;;;5008979;28;36995;-58
2022/05/23 14:34:28;;;;;;;;;;;22.60;86.80;;;;;;5008844;28;40035;-59
2022/05/23 14:36:57;;;;;;;;;;;22.60;87.20;;;;;;5009095;28;36865;-59
2022/05/23 14:39:26;;;;;;;;;;;22.50;87.40;;;;;;5009025;28;38478;-59
2022/05/23 14:41:54;;;;;;;;;;;22.50;88.50;;;;;;5008229;28;37141;-59
2022/05/23 14:44:39;;;;;;;;;;;22.40;86.90;;;;;;5012787;28;39312;-58
2022/05/23 14:47:09;;;;;;;;;;;22.40;87.10;;;;;;5014358;28;35161;-59
2022/05/23 14:49:37;;;;;;;;;;;22.40;86.70;;;;;;5012057;28;37398;-59
2022/05/23 14:52:19;;;;;;;;;;;22.30;88.20;;;;;;5015140;28;39050;-59
2022/05/23 15:00:39;;;;;;;;;;;22.30;89.10;;;;;;5015261;28;37619;-59
2022/05/23 15:03:10;;;;;;;;;;;22.30;89.80;;;;;;5014262;28;39084;-60
2022/05/23 15:05:37;;;;;;;;;;;22.30;90.10;;;;;;5014893;28;37906;-60
2022/05/23 15:08:05;;;;;;;;;;;22.30;89.70;;;;;;5015847;28;37275;-60
2022/05/23 15:10:32;;;;;;;;;;;22.30;90.20;;;;;;5015541;28;37391;-59
2022/05/23 15:13:00;;;;;;;;;;;22.30;89.60;;;;;;5014972;28;38739;-60
2022/05/23 15:15:27;;;;;;;;;;;22.30;88.60;;;;;;5014475;28;38178;-59
2022/05/23 15:17:54;;;;;;;;;;;22.30;90.00;;;;;;5013899;28;37787;-60
2022/05/23 15:20:23;;;;;;;;;;;22.30;90.40;;;;;;5014809;28;38792;-59
2022/05/23 15:22:51;;;;;;;;;;;22.30;91.00;;;;;;5013098;28;38572;-60
2022/05/23 15:25:18;;;;;;;;;;;22.30;90.80;;;;;;5013518;28;37597;-59
2022/05/23 15:27:47;;;;;;;;;;;22.30;91.20;;;;;;5014264;28;35629;-60
2022/05/23 15:30:16;;;;;;;;;;;22.20;90.50;;;;;;5014184;28;37408;-60
2022/05/23 15:32:44;;;;;;;;;;;22.20;90.90;;;;;;5014832;28;38511;-59
2022/05/23 15:35:12;;;;;;;;;;;22.20;91.30;;;;;;5012614;28;37459;-59
2022/05/23 15:37:42;;;;;;;;;;;22.10;92.10;;;;;;5015233;28;37074;-59
2022/05/23 15:40:10;;;;;;;;;;;22.10;92.20;;;;;;5014564;28;38085;-59
2022/05/23 15:42:38;;;;;;;;;;;22.10;92.20;;;;;;5014860;28;39056;-59
2022/05/23 15:45:07;;;;;;;;;;;22.10;93.20;;;;;;5013520;28;38439;-59
2022/05/23 15:47:34;;;;;;;;;;;22.10;93.50;;;;;;5012589;28;37022;-59
2022/05/23 15:50:02;;;;;;;;;;;22.00;94.20;;;;;;5013748;28;37067;-59
2022/05/23 15:52:29;;;;;;;;;;;22.00;94.40;;;;;;5013564;28;39663;-59
2022/05/23 15:54:58;;;;;;;;;;;21.90;94.20;;;;;;5014107;28;39538;-59
2022/05/23 15:57:28;;;;;;;;;;;21.90;95.00;;;;;;5011854;28;37375;-60
2022/05/23 15:59:56;;;;;;;;;;;21.80;95.00;;;;;;5011627;28;36460;-59
2022/05/23 16:02:23;;;;;;;;;;;21.80;95.60;;;;;;5013215;28;40942;-59
2022/05/23 16:04:50;;;;;;;;;;;21.70;96.30;;;;;;5011609;28;37488;-59
2022/05/23 16:07:17;;;;;;;;;;;21.60;97.20;;;;;;5013294;28;35433;-59
2022/05/23 16:09:44;;;;;;;;;;;21.50;98.30;;;;;;5012977;28;37639;-59
2022/05/23 16:12:13;;;;;;;;;;;21.40;98.60;;;;;;5012949;28;38704;-60
2022/05/23 16:14:41;;;;;;;;;;;21.30;99.60;;;;;;5014085;28;37435;-59
2022/05/23 16:17:08;;;;;;;;;;;21.20;99.70;;;;;;5012237;28;36006;-59
2022/05/23 16:19:38;;;;;;;;;;;21.20;99.90;;;;;;5013153;28;37757;-59
2022/05/23 16:22:08;;;;;;;;;;;21.10;99.70;;;;;;5011228;28;38714;-59
2022/05/23 16:24:35;;;;;;;;;;;21.10;99.90;;;;;;5012375;28;38942;-59